Time;durP1;ratioP1;P1;durP2;ratioP2;P2;SDS_P1;SDS_P2;PMS_P1;PMS_P2;Temp;Humidity;BMP_temperature;BMP_pressure;BME280_temperature;BME280_humidity;BME280_pressure;Samples;Min_cycle;Max_cycle;Signal;HPM_P1;HPM_P2
2022/08/22 00:08:49;;;;;;;14.50;10.70;;;;;;;18.16;93.71;98178.39;433677;1267;98014;-41
2022/08/22 00:19:03;;;;;;;15.80;12.20;;;;;;;18.16;94.02;98178.02;433888;1266;108996;-41
2022/08/22 00:29:12;;;;;;;14.90;10.90;;;;;;;18.16;93.72;98178.81;433883;1267;97916;-40
2022/08/22 00:39:27;;;;;;;13.90;12.20;;;;;;;18.19;93.95;98176.38;433749;1267;111282;-41
2022/08/22 00:49:41;;;;;;;14.70;13.30;;;;;;;18.17;93.86;98169.38;433578;1268;108827;-39
2022/08/22 01:00:04;;;;;;;16.50;12.70;;;;;;;18.16;94.15;98169.23;433896;1267;97914;-38
2022/08/22 01:10:14;;;;;;;15.30;11.70;;;;;;;18.13;93.98;98169.60;434457;1257;108840;-38
2022/08/22 01:20:57;;;;;;;14.80;11.90;;;;;;;18.10;94.08;98175.16;433202;1270;97518;-39
2022/08/22 01:31:34;;;;;;;12.90;10.50;;;;;;;18.07;94.25;98186.29;433281;1269;109471;-40
2022/08/22 01:41:59;;;;;;;14.90;11.70;;;;;;;18.07;94.14;98188.80;433436;1269;108866;-39
2022/08/22 01:52:04;;;;;;;20.70;13.10;;;;;;;18.04;94.17;98187.30;433360;1269;97999;-40
2022/08/22 02:02:17;;;;;;;19.60;13.80;;;;;;;18.00;94.34;98184.25;433227;1270;108758;-40
2022/08/22 02:12:26;;;;;;;19.80;15.00;;;;;;;17.98;94.31;98185.86;433178;1269;97958;-39
2022/08/22 02:22:31;;;;;;;;;;;;;;;17.98;94.33;98188.06;432818;1269;111021;-40
2022/08/22 02:32:45;;;;;;;19.20;14.50;;;;;;;17.96;94.67;98191.92;432965;1270;108927;-41
2022/08/22 02:42:55;;;;;;;25.80;15.90;;;;;;;17.95;94.52;98188.95;432741;1269;97918;-40
2022/08/22 02:53:05;;;;;;;17.50;13.10;;;;;;;17.90;94.50;98182.70;433305;1269;109271;-40
2022/08/22 03:03:20;;;;;;;15.20;13.60;;;;;;;17.83;94.61;98180.98;433128;1269;97892;-40
2022/08/22 03:13:35;;;;;;;19.10;14.80;;;;;;;17.77;94.89;98176.52;433078;1269;111244;-40
2022/08/22 03:23:43;;;;;;;16.50;13.80;;;;;;;17.73;95.10;98171.48;433062;1269;108854;-40
2022/08/22 03:34:16;;;;;;;16.30;14.00;;;;;;;17.69;95.04;98174.20;433084;1270;97542;-42
2022/08/22 03:45:00;;;;;;;18.90;13.30;;;;;;;17.68;95.42;98180.89;432923;1269;108773;-40
2022/08/22 04:05:34;;;;;;;17.80;13.90;;;;;;;17.72;95.46;98195.17;433042;1269;111123;-40
2022/08/22 04:16:01;;;;;;;14.40;12.90;;;;;;;17.77;95.61;98196.05;433044;1269;108510;-40
2022/08/22 04:26:10;;;;;;;15.30;13.70;;;;;;;17.81;95.61;98194.23;432917;1269;97866;-40
2022/08/22 04:36:20;;;;;;;20.50;15.50;;;;;;;17.85;95.49;98198.14;433044;1269;108957;-40
2022/08/22 04:56:55;;;;;;;25.20;21.10;;;;;;;17.96;95.70;98208.73;433245;1269;110721;-40
2022/08/22 05:07:11;;;;;;;26.90;21.30;;;;;;;17.97;95.88;98217.61;433169;1269;107752;-39
2022/08/22 05:17:23;;;;;;;28.70;20.60;;;;;;;18.08;96.13;98212.77;433366;1270;98457;-39
2022/08/22 05:27:34;;;;;;;27.70;22.10;;;;;;;18.22;96.12;98213.36;433333;1269;108709;-39
2022/08/22 05:37:48;;;;;;;33.90;23.80;;;;;;;18.37;96.33;98223.96;433370;1269;97896;-39
2022/08/22 05:48:06;;;;;;;24.90;21.10;;;;;;;18.52;96.07;98234.73;433213;1269;111100;-40
2022/08/22 05:58:16;;;;;;;28.90;21.20;;;;;;;18.57;96.05;98240.64;433102;1269;108625;-40
2022/08/22 06:08:25;;;;;;;26.10;20.60;;;;;;;18.64;96.09;98251.20;432224;1270;1562441;-40
2022/08/22 06:18:35;;;;;;;28.10;22.20;;;;;;;18.78;96.21;98254.45;433357;1270;109019;-40
2022/08/22 06:28:46;;;;;;;32.40;23.20;;;;;;;18.84;96.14;98256.42;433366;1270;97896;-40
2022/08/22 06:39:07;;;;;;;24.70;19.30;;;;;;;18.88;96.04;98257.55;432793;1269;111169;-40
2022/08/22 06:59:27;;;;;;;23.90;21.40;;;;;;;18.93;95.83;98264.17;433144;1269;97979;-40
2022/08/22 07:09:37;;;;;;;24.00;18.10;;;;;;;19.00;95.98;98272.31;432971;1269;109036;-41
2022/08/22 07:30:00;;;;;;;22.50;19.60;;;;;;;19.10;95.78;98268.66;433243;1270;110176;-41
2022/08/22 07:40:06;;;;;;;28.60;20.50;;;;;;;19.19;95.91;98268.45;433171;1270;108956;-40
2022/08/22 07:50:17;;;;;;;22.20;19.80;;;;;;;19.26;95.64;98269.02;433035;1270;97930;-41
2022/08/22 08:00:25;;;;;;;26.50;21.30;;;;;;;19.30;95.53;98268.21;432538;1269;107915;-41
2022/08/22 08:10:34;;;;;;;28.30;20.80;;;;;;;19.62;95.54;98270.23;433109;1269;97950;-40
2022/08/22 08:20:41;;;;;;;24.70;20.90;;;;;;;19.95;95.51;98269.63;432944;1270;109759;-39
2022/08/22 08:30:55;;;;;;;21.40;19.20;;;;;;;20.20;95.32;98273.13;433433;1270;108873;-40
2022/08/22 08:41:17;;;;;;;28.40;21.90;;;;;;;20.19;95.15;98272.36;432482;1270;96684;-41
2022/08/22 08:51:51;;;;;;;28.30;24.60;;;;;;;20.13;95.05;98272.33;432899;1270;108934;-41
2022/08/22 09:12:39;;;;;;;30.60;26.70;;;;;;;20.15;95.27;98271.48;433212;1270;111095;-40
2022/08/22 09:23:37;;;;;;;22.00;19.70;;;;;;;20.21;95.16;98273.70;433232;1268;108947;-40
2022/08/22 09:33:43;;;;;;;33.80;21.10;;;;;;;20.32;95.35;98272.64;433219;1270;97955;-40
2022/08/22 09:43:59;;;;;;;35.30;31.50;;;;;;;20.46;95.49;98272.20;433382;1269;109028;-40
2022/08/22 10:04:44;;;;;;;23.90;20.00;;;;;;;20.53;95.36;98272.98;432982;1269;111430;-38
2022/08/22 10:14:50;;;;;;;22.70;20.40;;;;;;;20.68;95.36;98269.70;433358;1269;108600;-38
2022/08/22 10:24:58;;;;;;;25.90;20.70;;;;;;;20.88;95.42;98273.89;433506;1269;97493;-38
2022/08/22 10:35:03;;;;;;;21.60;19.30;;;;;;;21.23;95.31;98279.52;433368;1271;108268;-37
2022/08/22 10:55:45;;;;;;;21.20;18.50;;;;;;;21.76;94.90;98286.97;433683;1271;110695;-38
2022/08/22 11:05:54;;;;;;;17.40;15.60;;;;;;;21.92;94.71;98283.45;433652;1270;108635;-39
2022/08/22 11:16:00;;;;;;;18.60;16.70;;;;;;;21.99;94.00;98279.96;433421;1269;97314;-39
2022/08/22 11:26:19;;;;;;;19.40;17.60;;;;;;;22.00;93.70;98280.32;433188;1270;109319;-39
2022/08/22 11:36:37;;;;;;;19.60;17.40;;;;;;;22.08;93.91;98276.91;433290;1270;97896;-39
2022/08/22 11:46:42;;;;;;;18.50;16.20;;;;;;;22.17;93.79;98281.96;432750;1270;111044;-40
2022/08/22 11:56:54;;;;;;;22.40;15.90;;;;;;;22.30;93.81;98293.90;432554;1271;109791;-40
2022/08/22 12:07:01;;;;;;;18.10;16.20;;;;;;;22.78;93.50;98292.85;432606;1271;97498;-38
2022/08/22 12:17:11;;;;;;;17.80;15.90;;;;;;;23.08;92.84;98281.71;432626;1271;108603;-38
2022/08/22 12:27:45;;;;;;;19.10;17.30;;;;;;;23.34;92.74;98267.38;432985;1271;97897;-38
2022/08/22 12:38:00;;;;;;;17.60;15.80;;;;;;;23.94;92.34;98243.02;433210;1271;111209;-38
2022/08/22 12:48:14;;;;;;;19.30;11.10;;;;;;;24.12;91.19;98224.88;432685;1270;108989;-40
2022/08/22 12:58:21;;;;;;;12.40;9.40;;;;;;;23.96;90.74;98225.86;432950;1270;97876;-40
2022/08/22 13:08:27;;;;;;;11.20;9.60;;;;;;;24.25;89.81;98220.48;433040;1271;110931;-40
2022/08/22 13:18:33;;;;;;;14.30;11.80;;;;;;;24.46;88.38;98220.48;433143;1269;108499;-40
2022/08/22 13:28:42;;;;;;;13.20;11.50;;;;;;;24.34;86.82;98234.04;432981;1270;97501;-40
2022/08/22 13:38:47;;;;;;;19.90;11.50;;;;;;;24.09;86.04;98250.05;433140;1269;111094;-40
2022/08/22 13:48:59;;;;;;;13.60;12.10;;;;;;;24.26;86.35;98257.58;432949;1270;109753;-40
2022/08/22 13:59:15;;;;;;;14.20;11.50;;;;;;;24.58;86.16;98245.75;432359;1270;97499;-40
2022/08/22 14:09:54;;;;;;;18.50;12.90;;;;;;;24.53;85.47;98242.71;432847;1270;109026;-41
2022/08/22 14:20:08;;;;;;;12.30;9.60;;;;;;;24.01;84.35;98234.34;432693;1269;109078;-40
2022/08/22 14:30:20;;;;;;;16.40;9.10;;;;;;;23.57;84.27;98235.66;432457;1269;97585;-42
2022/08/22 14:40:31;;;;;;;9.90;8.70;;;;;;;23.10;83.62;98260.91;432302;1270;108854;-39
2022/08/22 14:50:38;;;;;;;13.50;7.20;;;;;;;22.21;83.23;98285.75;432777;1270;97923;-40
2022/08/22 15:00:48;;;;;;;12.90;7.60;;;;;;;21.06;84.42;98288.09;432947;1270;111281;-41
2022/08/22 15:11:09;;;;;;;11.00;7.30;;;;;;;20.49;85.82;98275.77;432383;1270;108850;-40
2022/08/22 15:21:19;;;;;;;12.50;8.40;;;;;;;20.48;86.94;98285.57;432948;1269;97497;-41
2022/08/22 15:31:31;;;;;;;14.30;9.40;;;;;;;20.65;87.68;98286.64;433016;1270;108955;-40
2022/08/22 15:41:43;;;;;;;13.10;10.00;;;;;;;20.67;87.79;98288.75;432347;1270;97934;-40
2022/08/22 15:52:08;;;;;;;16.50;10.60;;;;;;;20.67;88.30;98283.91;432908;1270;110799;-41
2022/08/22 16:02:21;;;;;;;16.20;11.90;;;;;;;20.63;88.58;98274.50;433114;1270;108947;-40
2022/08/22 16:12:29;;;;;;;21.30;15.80;;;;;;;20.53;88.81;98258.38;433140;1270;97503;-39
2022/08/22 16:23:05;;;;;;;14.20;10.10;;;;;;;20.36;88.95;98260.96;433222;1270;107686;-39
2022/08/22 16:33:27;;;;;;;16.10;13.20;;;;;;;20.24;89.27;98276.98;433262;1270;97980;-39
2022/08/22 16:43:35;;;;;;;15.40;11.60;;;;;;;20.24;89.71;98287.82;433608;1269;111191;-40
2022/08/22 16:54:10;;;;;;;18.00;13.90;;;;;;;20.17;89.79;98292.87;433033;1268;109170;-40
2022/08/22 17:14:24;;;;;;;13.00;11.00;;;;;;;19.96;89.99;98302.90;432899;1270;108889;-41
2022/08/22 17:24:31;;;;;;;16.80;12.60;;;;;;;19.90;90.31;98300.34;433424;1269;97920;-39
2022/08/22 17:34:37;;;;;;;21.20;14.70;;;;;;;19.86;90.58;98306.25;433288;1270;109196;-39
2022/08/22 17:44:48;;;;;;;20.00;16.80;;;;;;;19.88;91.02;98313.27;433086;1270;109060;-40
2022/08/22 17:55:01;;;;;;;20.40;15.10;;;;;;;19.87;91.11;98320.30;433171;1269;97379;-39
2022/08/22 18:15:19;;;;;;;23.10;17.40;;;;;;;19.82;91.41;98318.28;432102;1270;1713677;-40
2022/08/22 18:25:34;;;;;;;20.70;17.40;;;;;;;19.76;91.57;98326.23;433378;1270;111360;-40
2022/08/22 18:35:43;;;;;;;19.50;16.90;;;;;;;19.73;92.03;98325.88;433359;1269;108934;-38
2022/08/22 18:56:18;;;;;;;19.70;14.40;;;;;;;19.69;92.41;98343.01;433319;1269;107210;-39
2022/08/22 19:06:47;;;;;;;15.60;14.00;;;;;;;19.67;92.61;98363.98;432426;1270;98177;-38
2022/08/22 19:17:15;;;;;;;18.20;13.50;;;;;;;19.57;93.26;98377.95;433525;1270;111084;-41
2022/08/22 19:27:33;;;;;;;17.40;12.50;;;;;;;19.53;93.44;98355.76;433383;1269;108784;-40
2022/08/22 19:37:50;;;;;;;14.10;12.70;;;;;;;19.56;93.65;98346.61;433567;1269;97896;-40
2022/08/22 19:47:59;;;;;;;17.00;11.40;;;;;;;19.57;93.56;98353.08;433396;1269;108978;-40
2022/08/22 19:58:04;;;;;;;20.70;13.30;;;;;;;19.52;93.51;98350.45;433260;1268;97522;-40
2022/08/22 20:18:53;;;;;;;15.10;10.90;;;;;;;19.44;93.84;98352.95;433239;1270;108807;-40
2022/08/22 20:29:12;;;;;;;12.70;11.20;;;;;;;19.45;93.78;98342.75;432851;1269;97523;-40
2022/08/22 20:39:23;;;;;;;15.60;11.10;;;;;;;19.38;93.80;98330.69;433321;1270;108810;-39
2022/08/22 20:49:34;;;;;;;16.60;10.60;;;;;;;19.31;93.87;98309.58;433602;1270;96592;-39
2022/08/22 20:59:50;;;;;;;15.60;11.00;;;;;;;19.28;94.12;98300.20;433566;1269;110997;-39
2022/08/22 21:20:30;;;;;;;15.60;11.60;;;;;;;19.22;94.21;98288.62;433669;1270;97236;-39
2022/08/22 21:30:37;;;;;;;15.40;12.10;;;;;;;19.20;94.40;98290.70;433377;1269;110543;-39
2022/08/22 21:40:44;;;;;;;18.10;11.70;;;;;;;19.17;94.46;98291.37;433227;1270;97510;-39
2022/08/22 21:50:49;;;;;;;18.10;13.40;;;;;;;19.16;94.56;98283.50;433641;1269;109987;-40
2022/08/22 22:11:08;;;;;;;12.70;11.30;;;;;;;19.16;94.83;98262.88;433149;1270;97499;-39
2022/08/22 22:31:22;;;;;;;20.20;14.00;;;;;;;19.11;95.08;98258.52;433415;1270;97529;-39
2022/08/22 22:41:29;;;;;;;16.00;12.00;;;;;;;19.13;95.18;98260.34;433287;1269;111139;-39
2022/08/22 22:51:36;;;;;;;18.00;13.00;;;;;;;19.13;95.31;98274.38;433067;1269;107778;-38
2022/08/22 23:02:01;;;;;;;22.90;13.70;;;;;;;19.16;95.30;98299.90;433082;1269;98568;-39
2022/08/22 23:12:06;;;;;;;18.10;12.40;;;;;;;19.25;95.65;98317.79;432896;1270;107887;-40
2022/08/22 23:22:13;;;;;;;22.80;13.80;;;;;;;19.34;95.54;98344.20;433087;1270;97897;-40
2022/08/22 23:32:21;;;;;;;22.70;13.60;;;;;;;19.36;95.75;98337.38;433410;1269;111257;-38
2022/08/22 23:42:30;;;;;;;23.10;13.60;;;;;;;19.55;95.78;98318.66;433124;1269;108914;-38
2022/08/22 23:52:37;;;;;;;9.80;8.50;;;;;;;19.62;95.34;98311.89;433126;1269;97895;-40
